createdAt,value
2022-11-07T00:01:24.885Z,101887.00
2022-11-07T00:03:58.895Z,101878.00
2022-11-07T00:06:31.892Z,101873.00
2022-11-07T00:09:05.157Z,101886.00
2022-11-07T00:11:38.106Z,101882.00
2022-11-07T00:14:11.035Z,101877.00
2022-11-07T00:16:44.036Z,101865.00
2022-11-07T00:19:18.359Z,101874.00
2022-11-07T00:21:51.591Z,101884.00
2022-11-07T00:24:24.639Z,101872.00
2022-11-07T00:26:57.703Z,101870.00
2022-11-07T00:29:30.582Z,101862.00
2022-11-07T00:32:04.364Z,101848.00
2022-11-07T00:34:38.825Z,101859.00
2022-11-07T00:37:14.586Z,101865.00
2022-11-07T00:40:21.213Z,101861.00
2022-11-07T00:42:28.883Z,101857.00
2022-11-07T00:45:01.623Z,101863.00
2022-11-07T00:47:38.638Z,101863.00
2022-11-07T00:50:18.752Z,101864.00
2022-11-07T00:52:52.635Z,101856.00
2022-11-07T00:55:32.265Z,101848.00
2022-11-07T00:58:07.590Z,101853.00
2022-11-07T01:00:41.692Z,101846.00
2022-11-07T01:03:41.629Z,101847.00
2022-11-07T01:06:18.601Z,101841.00
2022-11-07T01:08:51.882Z,101837.00
2022-11-07T01:11:24.930Z,101835.00
2022-11-07T01:14:09.568Z,101837.00
2022-11-07T01:16:51.954Z,101833.00
2022-11-07T01:19:25.004Z,101838.00
2022-11-07T01:21:57.829Z,101835.00
2022-11-07T01:24:31.190Z,101823.00
2022-11-07T01:27:06.467Z,101825.00
2022-11-07T01:29:47.450Z,101826.00
2022-11-07T01:32:24.564Z,101835.00
2022-11-07T01:34:57.663Z,101829.00
2022-11-07T01:37:30.466Z,101822.00
2022-11-07T01:40:11.048Z,101819.00
2022-11-07T01:42:44.011Z,101818.00
2022-11-07T01:45:25.615Z,101810.00
2022-11-07T01:48:07.738Z,101811.00
2022-11-07T01:50:41.942Z,101803.00
2022-11-07T01:53:15.370Z,101794.00
2022-11-07T01:55:52.445Z,101792.00
2022-11-07T01:58:25.444Z,101792.00
2022-11-07T02:00:58.354Z,101783.00
2022-11-07T02:03:39.585Z,101782.00
2022-11-07T02:06:18.006Z,101791.00
2022-11-07T02:08:52.676Z,101770.00
2022-11-07T02:11:26.039Z,101771.00
2022-11-07T02:14:07.004Z,101765.00
2022-11-07T02:16:48.011Z,101757.00
2022-11-07T02:19:47.105Z,101749.00
2022-11-07T02:22:31.493Z,101747.00
2022-11-07T02:25:06.768Z,101748.00
2022-11-07T02:27:42.922Z,101758.00
2022-11-07T02:30:27.115Z,101762.00
2022-11-07T02:32:59.958Z,101749.00
2022-11-07T02:35:52.831Z,101753.00
2022-11-07T02:38:44.235Z,101747.00
2022-11-07T02:41:22.044Z,101739.00
2022-11-07T02:44:01.256Z,101746.00
2022-11-07T02:46:36.668Z,101743.00
2022-11-07T02:49:09.932Z,101729.00
2022-11-07T02:51:42.948Z,101733.00
2022-11-07T02:54:20.403Z,101728.00
2022-11-07T02:56:58.299Z,101737.00
2022-11-07T02:59:31.479Z,101733.00
2022-11-07T03:02:06.612Z,101726.00
2022-11-07T03:04:39.767Z,101724.00
2022-11-07T03:07:14.925Z,101712.00
2022-11-07T03:09:47.892Z,101718.00
2022-11-07T03:12:22.606Z,101714.00
2022-11-07T03:14:58.257Z,101713.00
2022-11-07T03:17:31.288Z,101710.00
2022-11-07T03:20:04.061Z,101701.00
2022-11-07T03:22:37.025Z,101703.00
2022-11-07T03:25:10.842Z,101712.00
2022-11-07T03:27:53.710Z,101719.00
2022-11-07T03:30:26.543Z,101712.00
2022-11-07T03:33:00.103Z,101721.00
2022-11-07T03:35:32.894Z,101715.00
2022-11-07T03:38:05.889Z,101689.00
2022-11-07T03:40:39.055Z,101687.00
2022-11-07T03:43:12.148Z,101673.00
2022-11-07T03:45:45.355Z,101667.00
2022-11-07T03:48:18.134Z,101662.00
2022-11-07T03:50:51.545Z,101655.00
2022-11-07T03:53:26.034Z,101660.00
2022-11-07T03:55:59.605Z,101656.00
2022-11-07T03:58:32.670Z,101655.00
2022-11-07T04:01:05.863Z,101648.00
2022-11-07T04:03:39.271Z,101647.00
2022-11-07T04:06:12.616Z,101652.00
2022-11-07T04:08:45.651Z,101654.00
2022-11-07T04:11:20.103Z,101645.00
2022-11-07T04:14:10.620Z,101646.00
2022-11-07T04:17:01.065Z,101639.00
2022-11-07T04:19:34.238Z,101616.00
2022-11-07T04:22:07.106Z,101601.00
2022-11-07T04:24:45.387Z,101602.00
2022-11-07T04:27:35.351Z,101599.00
2022-11-07T04:30:22.483Z,101599.00
2022-11-07T04:32:56.977Z,101591.00
2022-11-07T04:35:32.512Z,101595.00
2022-11-07T04:38:05.746Z,101591.00
2022-11-07T04:40:38.740Z,101593.00
2022-11-07T04:43:12.821Z,101598.00
2022-11-07T04:45:46.068Z,101605.00
2022-11-07T04:48:19.515Z,101600.00
2022-11-07T04:50:52.622Z,101612.00
2022-11-07T04:53:25.649Z,101602.00
2022-11-07T04:55:58.570Z,101599.00
2022-11-07T04:58:31.528Z,101597.00
2022-11-07T05:01:04.780Z,101598.00
2022-11-07T05:03:41.531Z,101588.00
2022-11-07T05:06:13.918Z,101586.00
2022-11-07T05:08:46.932Z,101589.00
2022-11-07T05:11:19.947Z,101590.00
2022-11-07T05:13:52.865Z,101599.00
2022-11-07T05:16:25.942Z,101597.00
2022-11-07T05:18:58.828Z,101590.00
2022-11-07T05:21:31.899Z,101601.00
2022-11-07T05:24:05.046Z,101609.00
2022-11-07T05:26:38.078Z,101624.00
2022-11-07T05:29:15.721Z,101623.00
2022-11-07T05:31:48.968Z,101622.00
2022-11-07T05:34:21.975Z,101625.00
2022-11-07T05:36:55.532Z,101623.00
2022-11-07T05:39:28.457Z,101627.00
2022-11-07T05:42:01.424Z,101632.00
2022-11-07T05:44:35.650Z,101626.00
2022-11-07T05:47:08.586Z,101622.00
2022-11-07T05:49:41.955Z,101627.00
2022-11-07T05:52:15.023Z,101628.00
2022-11-07T05:54:48.180Z,101628.00
2022-11-07T05:57:22.059Z,101618.00
2022-11-07T05:59:54.999Z,101617.00
2022-11-07T06:02:29.019Z,101613.00
2022-11-07T06:05:04.341Z,101602.00
2022-11-07T06:07:46.780Z,101605.00
2022-11-07T06:10:27.481Z,101620.00
2022-11-07T06:13:08.235Z,101620.00
2022-11-07T06:15:41.655Z,101617.00
2022-11-07T06:18:27.100Z,101625.00
2022-11-07T06:21:01.109Z,101618.00
2022-11-07T06:23:33.971Z,101614.00
2022-11-07T06:29:05.162Z,101624.00
2022-11-07T06:31:38.074Z,101627.00
2022-11-07T06:34:19.679Z,101607.00
2022-11-07T06:37:01.606Z,101617.00
2022-11-07T06:39:31.956Z,101628.00
2022-11-07T06:42:04.859Z,101652.00
2022-11-07T06:44:37.886Z,101639.00
2022-11-07T06:47:12.521Z,101629.00
2022-11-07T06:49:47.822Z,101626.00
2022-11-07T06:52:21.006Z,101632.00
2022-11-07T06:54:55.904Z,101632.00
2022-11-07T06:57:30.264Z,101632.00
2022-11-07T07:00:05.920Z,101626.00
2022-11-07T07:02:57.360Z,101634.00
2022-11-07T07:05:21.122Z,101624.00
2022-11-07T07:07:52.238Z,101620.00
2022-11-07T07:10:29.295Z,101620.00
2022-11-07T07:13:06.710Z,101630.00
2022-11-07T07:15:51.173Z,101630.00
2022-11-07T07:18:18.012Z,101644.00
2022-11-07T07:20:56.596Z,101646.00
2022-11-07T07:23:30.636Z,101649.00
2022-11-07T07:26:03.623Z,101646.00
2022-11-07T07:28:40.698Z,101647.00
2022-11-07T07:31:20.350Z,101654.00
2022-11-07T07:33:54.584Z,101654.00
2022-11-07T07:36:28.548Z,101650.00
2022-11-07T07:39:03.098Z,101658.00
2022-11-07T07:41:40.934Z,101660.00
2022-11-07T07:44:29.145Z,101660.00
2022-11-07T07:47:11.027Z,101660.00
2022-11-07T07:49:42.787Z,101669.00
2022-11-07T07:52:23.640Z,101661.00
2022-11-07T07:55:02.151Z,101673.00
2022-11-07T07:57:36.195Z,101673.00
2022-11-07T08:00:12.912Z,101677.00
2022-11-07T08:02:53.196Z,101682.00
2022-11-07T08:05:30.514Z,101683.00
2022-11-07T08:08:03.546Z,101689.00
2022-11-07T08:10:41.886Z,101690.00
2022-11-07T08:13:12.554Z,101692.00
2022-11-07T08:15:49.602Z,101700.00
2022-11-07T08:18:28.117Z,101698.00
2022-11-07T08:21:01.342Z,101699.00
2022-11-07T08:23:34.448Z,101692.00
2022-11-07T08:26:07.794Z,101695.00
2022-11-07T08:28:40.846Z,101700.00
2022-11-07T08:31:16.987Z,101701.00
2022-11-07T08:33:50.936Z,101706.00
2022-11-07T08:36:23.886Z,101702.00
2022-11-07T08:39:05.143Z,101701.00
2022-11-07T08:41:39.293Z,101705.00
2022-11-07T08:44:17.678Z,101704.00
2022-11-07T08:46:52.156Z,101707.00
2022-11-07T08:49:25.013Z,101702.00
2022-11-07T08:51:58.100Z,101704.00
2022-11-07T08:54:31.090Z,101707.00
2022-11-07T08:57:03.994Z,101697.00
2022-11-07T08:59:36.895Z,101711.00
2022-11-07T09:04:44.251Z,101697.00
2022-11-07T09:07:17.323Z,101702.00
2022-11-07T09:09:50.904Z,101705.00
2022-11-07T09:12:23.858Z,101709.00
2022-11-07T09:14:56.833Z,101701.00
2022-11-07T09:17:30.923Z,101701.00
2022-11-07T09:20:03.861Z,101704.00
2022-11-07T09:22:36.785Z,101695.00
2022-11-07T09:25:10.769Z,101701.00
2022-11-07T09:27:46.082Z,101699.00
2022-11-07T09:30:19.272Z,101700.00
2022-11-07T09:32:52.117Z,101689.00
2022-11-07T09:35:25.073Z,101692.00
2022-11-07T09:38:00.312Z,101696.00
2022-11-07T09:40:50.191Z,101700.00
2022-11-07T09:43:37.473Z,101689.00
2022-11-07T09:46:27.526Z,101695.00
2022-11-07T09:49:14.797Z,101701.00
2022-11-07T09:51:55.185Z,101697.00
2022-11-07T09:54:30.242Z,101698.00
2022-11-07T09:57:04.185Z,101698.00
2022-11-07T09:59:42.202Z,101696.00
2022-11-07T10:02:24.602Z,101690.00
2022-11-07T10:04:59.307Z,101693.00
2022-11-07T10:07:46.616Z,101686.00
2022-11-07T10:10:24.260Z,101689.00
2022-11-07T10:13:17.372Z,101688.00
2022-11-07T10:15:53.067Z,101681.00
2022-11-07T10:18:33.680Z,101685.00
2022-11-07T10:21:37.276Z,101680.00
2022-11-07T10:24:16.187Z,101688.00
2022-11-07T10:26:49.896Z,101690.00
2022-11-07T10:29:24.476Z,101684.00
2022-11-07T10:32:14.554Z,101680.00
2022-11-07T10:34:54.228Z,101680.00
2022-11-07T10:37:23.930Z,101684.00
2022-11-07T10:39:56.778Z,101675.00
2022-11-07T10:42:31.354Z,101674.00
2022-11-07T10:45:04.640Z,101663.00
2022-11-07T10:47:37.679Z,101675.00
2022-11-07T10:50:24.399Z,101668.00
2022-11-07T10:53:09.508Z,101672.00
2022-11-07T10:55:50.074Z,101666.00
2022-11-07T10:58:37.030Z,101663.00
2022-11-07T11:01:12.669Z,101667.00
2022-11-07T11:03:52.503Z,101665.00
2022-11-07T11:06:27.893Z,101662.00
2022-11-07T11:09:01.145Z,101663.00
2022-11-07T11:11:38.914Z,101676.00
2022-11-07T11:14:16.736Z,101668.00
2022-11-07T11:16:51.639Z,101671.00
2022-11-07T11:19:26.103Z,101663.00
2022-11-07T11:22:01.652Z,101668.00
2022-11-07T11:24:41.663Z,101674.00
2022-11-07T11:27:26.373Z,101663.00
2022-11-07T11:30:03.883Z,101668.00
2022-11-07T11:32:38.980Z,101673.00
2022-11-07T11:35:14.351Z,101665.00
2022-11-07T11:37:49.452Z,101659.00
2022-11-07T11:40:31.869Z,101659.00
2022-11-07T11:43:29.806Z,101655.00
2022-11-07T11:46:19.076Z,101659.00
2022-11-07T11:49:04.259Z,101660.00
2022-11-07T11:51:42.859Z,101652.00
2022-11-07T11:54:20.366Z,101637.00
2022-11-07T11:56:59.037Z,101628.00
2022-11-07T11:59:42.853Z,101626.00
2022-11-07T12:02:46.055Z,101628.00
2022-11-07T12:05:40.325Z,101641.00
2022-11-07T12:08:26.144Z,101637.00
2022-11-07T12:11:22.666Z,101636.00
2022-11-07T12:17:16.327Z,101627.00
2022-11-07T12:20:00.435Z,101629.00
2022-11-07T12:22:40.879Z,101620.00
2022-11-07T12:25:16.071Z,101621.00
2022-11-07T12:28:20.960Z,101620.00
2022-11-07T12:31:14.129Z,101623.00
2022-11-07T12:34:05.217Z,101615.00
2022-11-07T12:36:47.513Z,101615.00
2022-11-07T12:39:39.521Z,101605.00
2022-11-07T12:42:30.782Z,101592.00
2022-11-07T12:45:23.410Z,101585.00
2022-11-07T12:48:31.028Z,101575.00
2022-11-07T12:51:20.374Z,101556.00
2022-11-07T12:54:16.486Z,101557.00
2022-11-07T12:56:48.412Z,101545.00
2022-11-07T12:59:31.052Z,101541.00
2022-11-07T13:02:31.607Z,101522.00
2022-11-07T13:05:20.091Z,101506.00
2022-11-07T13:07:55.098Z,101507.00
2022-11-07T13:10:32.156Z,101512.00
2022-11-07T13:13:07.237Z,101506.00
2022-11-07T13:16:13.401Z,101503.00
2022-11-07T13:18:32.540Z,101492.00
2022-11-07T13:21:13.648Z,101497.00
2022-11-07T13:23:55.235Z,101492.00
2022-11-07T13:26:47.317Z,101497.00
2022-11-07T13:29:20.629Z,101483.00
2022-11-07T13:32:01.825Z,101470.00
2022-11-07T13:34:40.307Z,101471.00
2022-11-07T13:37:15.009Z,101475.00
2022-11-07T13:39:51.096Z,101475.00
2022-11-07T13:42:34.457Z,101468.00
2022-11-07T13:45:22.851Z,101448.00
2022-11-07T13:48:01.840Z,101452.00
2022-11-07T13:50:54.402Z,101458.00
2022-11-07T13:53:36.553Z,101455.00
2022-11-07T13:56:13.451Z,101461.00
2022-11-07T13:58:51.120Z,101465.00
2022-11-07T14:01:26.530Z,101458.00
2022-11-07T14:03:59.678Z,101456.00
2022-11-07T14:06:38.039Z,101453.00
2022-11-07T14:09:11.126Z,101459.00
2022-11-07T14:11:45.718Z,101440.00
2022-11-07T14:14:27.669Z,101440.00
2022-11-07T14:17:06.737Z,101437.00
2022-11-07T14:19:41.128Z,101449.00
2022-11-07T14:22:32.947Z,101444.00
2022-11-07T14:25:07.914Z,101449.00
2022-11-07T14:30:38.079Z,101451.00
2022-11-07T14:33:11.998Z,101441.00
2022-11-07T14:35:47.129Z,101441.00
2022-11-07T14:38:26.358Z,101436.00
2022-11-07T14:41:01.301Z,101430.00
2022-11-07T14:43:34.336Z,101433.00
2022-11-07T14:46:13.670Z,101433.00
2022-11-07T14:48:44.465Z,101428.00
2022-11-07T14:51:19.609Z,101423.00
2022-11-07T14:54:06.827Z,101434.00
2022-11-07T14:56:41.773Z,101424.00
2022-11-07T14:59:16.866Z,101423.00
2022-11-07T15:02:03.379Z,101421.00
2022-11-07T15:04:45.477Z,101415.00
2022-11-07T15:07:32.692Z,101414.00
2022-11-07T15:10:21.920Z,101411.00
2022-11-07T15:12:56.083Z,101416.00
2022-11-07T15:15:32.190Z,101413.00
2022-11-07T15:18:09.603Z,101405.00
2022-11-07T15:20:43.256Z,101401.00
2022-11-07T15:23:23.726Z,101402.00
2022-11-07T15:26:01.841Z,101398.00
2022-11-07T15:28:36.732Z,101399.00
2022-11-07T15:31:13.647Z,101389.00
2022-11-07T15:33:44.293Z,101394.00
2022-11-07T15:36:18.833Z,101393.00
2022-11-07T15:38:52.905Z,101399.00
2022-11-07T15:41:25.946Z,101390.00
2022-11-07T15:43:59.111Z,101395.00
2022-11-07T15:46:39.500Z,101380.00
2022-11-07T15:49:13.453Z,101392.00
2022-11-07T15:51:46.590Z,101391.00
2022-11-07T15:54:20.677Z,101382.00
2022-11-07T15:56:58.252Z,101383.00
2022-11-07T15:59:29.585Z,101377.00
2022-11-07T16:02:03.100Z,101377.00
2022-11-07T16:04:39.623Z,101375.00
2022-11-07T16:07:11.785Z,101372.00
2022-11-07T16:09:44.887Z,101374.00
2022-11-07T16:12:19.247Z,101366.00
2022-11-07T16:14:52.600Z,101370.00
2022-11-07T16:17:25.670Z,101366.00
2022-11-07T16:20:01.386Z,101364.00
2022-11-07T16:22:32.667Z,101363.00
2022-11-07T16:25:11.667Z,101359.00
2022-11-07T16:27:39.563Z,101373.00
2022-11-07T16:30:16.987Z,101370.00
2022-11-07T16:32:50.049Z,101366.00
2022-11-07T16:35:23.171Z,101370.00
2022-11-07T16:37:56.079Z,101363.00
2022-11-07T16:40:29.118Z,101359.00
2022-11-07T16:43:01.934Z,101368.00
2022-11-07T16:45:35.074Z,101370.00
2022-11-07T16:48:09.373Z,101377.00
2022-11-07T16:50:42.288Z,101391.00
2022-11-07T16:53:16.100Z,101391.00
2022-11-07T16:55:53.846Z,101391.00
2022-11-07T16:58:27.512Z,101390.00
2022-11-07T17:01:02.079Z,101391.00
2022-11-07T17:03:35.232Z,101389.00
2022-11-07T17:06:08.981Z,101389.00
2022-11-07T17:08:46.910Z,101390.00
2022-11-07T17:11:26.127Z,101385.00
2022-11-07T17:13:59.173Z,101386.00
2022-11-07T17:16:34.607Z,101378.00
2022-11-07T17:19:08.421Z,101372.00
2022-11-07T17:21:46.099Z,101368.00
2022-11-07T17:24:19.045Z,101364.00
2022-11-07T17:26:52.007Z,101341.00
2022-11-07T17:29:25.254Z,101334.00
2022-11-07T17:31:57.978Z,101326.00
2022-11-07T17:34:31.028Z,101317.00
2022-11-07T17:37:03.929Z,101319.00
2022-11-07T17:39:36.931Z,101324.00
2022-11-07T17:42:10.484Z,101332.00
2022-11-07T17:44:43.755Z,101333.00
2022-11-07T17:47:18.941Z,101336.00
2022-11-07T17:49:51.999Z,101331.00
2022-11-07T17:52:24.977Z,101332.00
2022-11-07T17:54:58.190Z,101333.00
2022-11-07T17:57:31.149Z,101340.00
2022-11-07T18:00:05.195Z,101346.00
2022-11-07T18:02:38.145Z,101342.00
2022-11-07T18:05:12.622Z,101341.00
2022-11-07T18:07:45.935Z,101339.00
2022-11-07T18:10:19.458Z,101336.00
2022-11-07T18:12:52.555Z,101343.00
2022-11-07T18:15:27.643Z,101338.00
2022-11-07T18:17:59.579Z,101349.00
2022-11-07T18:20:32.453Z,101352.00
2022-11-07T18:23:05.477Z,101362.00
2022-11-07T18:25:38.337Z,101371.00
2022-11-07T18:28:11.148Z,101365.00
2022-11-07T18:30:44.133Z,101357.00
2022-11-07T18:33:17.131Z,101341.00
2022-11-07T18:35:50.341Z,101349.00
2022-11-07T18:38:23.672Z,101370.00
2022-11-07T18:41:07.902Z,101389.00
2022-11-07T18:43:40.874Z,101397.00
2022-11-07T18:46:16.908Z,101393.00
2022-11-07T18:48:49.706Z,101401.00
2022-11-07T18:51:24.308Z,101395.00
2022-11-07T18:53:57.926Z,101405.00
2022-11-07T18:56:30.886Z,101391.00
2022-11-07T18:59:03.829Z,101394.00
2022-11-07T19:01:36.850Z,101390.00
2022-11-07T19:04:11.340Z,101397.00
2022-11-07T19:06:45.662Z,101407.00
2022-11-07T19:09:18.583Z,101411.00
2022-11-07T19:11:51.648Z,101417.00
2022-11-07T19:14:24.580Z,101424.00
2022-11-07T19:16:57.506Z,101417.00
2022-11-07T19:19:30.497Z,101426.00
2022-11-07T19:22:03.664Z,101433.00
2022-11-07T19:24:37.375Z,101426.00
2022-11-07T19:27:11.268Z,101433.00
2022-11-07T19:29:44.159Z,101431.00
2022-11-07T19:32:19.511Z,101434.00
2022-11-07T19:34:52.419Z,101421.00
2022-11-07T19:37:25.776Z,101432.00
2022-11-07T19:40:02.727Z,101429.00
2022-11-07T19:42:35.969Z,101425.00
2022-11-07T19:45:09.427Z,101416.00
2022-11-07T19:47:42.388Z,101418.00
2022-11-07T19:50:16.023Z,101423.00
2022-11-07T19:52:49.071Z,101416.00
2022-11-07T19:55:22.032Z,101422.00
2022-11-07T19:57:55.129Z,101412.00
2022-11-07T20:00:28.089Z,101423.00
2022-11-07T20:03:01.171Z,101418.00
2022-11-07T20:05:35.110Z,101401.00
2022-11-07T20:08:08.250Z,101390.00
2022-11-07T20:10:41.370Z,101397.00
2022-11-07T20:13:19.060Z,101382.00
2022-11-07T20:15:52.774Z,101380.00
2022-11-07T20:18:27.004Z,101366.00
2022-11-07T20:21:08.169Z,101359.00
2022-11-07T20:23:41.188Z,101372.00
2022-11-07T20:26:16.546Z,101362.00
2022-11-07T20:28:52.836Z,101364.00
2022-11-07T20:31:30.478Z,101362.00
2022-11-07T20:34:04.704Z,101355.00
2022-11-07T20:36:37.763Z,101342.00
2022-11-07T20:39:11.083Z,101352.00
2022-11-07T20:41:45.684Z,101361.00
2022-11-07T20:44:23.645Z,101365.00
2022-11-07T20:46:58.585Z,101371.00
2022-11-07T20:49:31.560Z,101376.00
2022-11-07T20:52:04.648Z,101374.00
2022-11-07T20:54:37.922Z,101370.00
2022-11-07T20:57:11.482Z,101374.00
2022-11-07T20:59:44.386Z,101378.00
2022-11-07T21:02:17.655Z,101382.00
2022-11-07T21:05:16.010Z,101391.00
2022-11-07T21:07:27.574Z,101390.00
2022-11-07T21:10:00.517Z,101395.00
2022-11-07T21:12:33.549Z,101387.00
2022-11-07T21:15:06.598Z,101385.00
2022-11-07T21:17:39.506Z,101378.00
2022-11-07T21:20:13.385Z,101381.00
2022-11-07T21:22:46.297Z,101394.00
2022-11-07T21:25:19.370Z,101384.00
2022-11-07T21:27:52.175Z,101382.00
2022-11-07T21:30:25.246Z,101388.00
2022-11-07T21:32:58.249Z,101384.00
2022-11-07T21:35:33.508Z,101383.00
2022-11-07T21:38:05.252Z,101374.00
2022-11-07T21:40:40.286Z,101372.00
2022-11-07T21:43:14.643Z,101364.00
2022-11-07T21:45:48.057Z,101350.00
2022-11-07T21:48:21.092Z,101355.00
2022-11-07T21:50:53.927Z,101350.00
2022-11-07T21:53:26.903Z,101343.00
2022-11-07T21:56:00.699Z,101345.00
2022-11-07T21:58:34.180Z,101345.00
2022-11-07T22:01:08.313Z,101349.00
2022-11-07T22:06:21.660Z,101355.00
2022-11-07T22:08:57.400Z,101361.00
2022-11-07T22:11:30.421Z,101368.00
2022-11-07T22:14:03.359Z,101360.00
2022-11-07T22:16:36.418Z,101359.00
2022-11-07T22:19:12.484Z,101364.00
2022-11-07T22:21:44.548Z,101361.00
2022-11-07T22:24:17.513Z,101364.00
2022-11-07T22:26:50.468Z,101364.00
2022-11-07T22:29:26.191Z,101363.00
2022-11-07T22:31:59.000Z,101371.00
2022-11-07T22:34:32.008Z,101365.00
2022-11-07T22:37:04.931Z,101361.00
2022-11-07T22:39:37.852Z,101352.00
2022-11-07T22:42:11.143Z,101356.00
2022-11-07T22:44:44.083Z,101346.00
2022-11-07T22:47:17.124Z,101355.00
2022-11-07T22:49:49.907Z,101349.00
2022-11-07T22:52:24.139Z,101339.00
2022-11-07T22:54:57.013Z,101337.00
2022-11-07T22:57:30.125Z,101322.00
2022-11-07T23:00:12.724Z,101318.00
2022-11-07T23:02:37.473Z,101319.00
2022-11-07T23:05:11.106Z,101323.00
2022-11-07T23:07:44.219Z,101327.00
2022-11-07T23:10:17.477Z,101322.00
2022-11-07T23:12:50.641Z,101332.00
2022-11-07T23:15:23.565Z,101329.00
2022-11-07T23:17:56.333Z,101320.00
2022-11-07T23:20:47.228Z,101313.00
2022-11-07T23:23:20.312Z,101310.00
2022-11-07T23:25:53.409Z,101308.00
2022-11-07T23:28:26.514Z,101297.00
2022-11-07T23:30:59.552Z,101293.00
2022-11-07T23:33:32.505Z,101306.00
2022-11-07T23:36:05.865Z,101303.00
2022-11-07T23:38:38.909Z,101307.00
2022-11-07T23:41:13.268Z,101306.00
2022-11-07T23:43:51.332Z,101307.00
2022-11-07T23:46:43.317Z,101306.00
2022-11-07T23:49:33.354Z,101306.00
2022-11-07T23:52:06.916Z,101296.00
2022-11-07T23:54:57.105Z,101293.00
2022-11-07T23:57:30.453Z,101295.00
